Latest Weather Observations for Woolshed

IDQ60801

Issued at 6:05 pm EST Sunday 31 August 2014 (issued every 30 minutes, with the page automatically refreshed every 10 minutes)

About weather observations | Map of weather stations | Latest weather observations for QLD | Other Formats
Station Details ID: 033307 Name: WOOLSHED Lat: -19.42 Lon: 146.54 Height: 556.04 m
Data from the previous 72 hours. | See also: Recent months at Woolshed
Date/Time
EST
Temp
°C
App
Temp
°C
Dew
Point
Rel
Hum
%
Delta-T
°C
Wind Press
QNH
hPa
Press
MSL
hPa
Rain
since 9 am
mm
Dir
 
Spd
km/h
Gust
km/h
Spd
kts
Gust
kts
31/06:00pm 16.6 14.0 5.9 49 5.3 NNE 9 17 5 9 1017.5 1015.7 0.0
31/05:30pm 18.1 15.6 4.7 41 6.6 NNE 7 15 4 8 1017.1 1015.3 0.0
31/05:00pm 19.2 16.3 4.9 39 7.1 NNE 9 17 5 9 1017.0 1015.1 0.0
31/04:30pm 20.3 17.4 4.4 35 7.9 NNE 9 19 5 10 1016.7 1014.8 0.0
31/04:00pm 20.8 17.9 6.4 39 7.5 NNE 11 19 6 10 1016.6 1014.7 0.0
31/03:30pm 21.2 19.0 9.4 47 6.5 NNE 11 20 6 11 1016.4 1014.5 0.0
31/03:00pm 22.7 21.7 10.2 45 7.0 NNE 6 15 3 8 1016.4 1014.5 0.0
31/02:30pm 22.5 20.6 6.7 36 8.3 E 6 15 3 8 1016.7 1014.8 0.0
31/02:00pm 22.5 20.7 7.1 37 8.2 N 6 13 3 7 1017.0 1015.1 0.0
31/01:30pm 22.2 20.3 6.8 37 8.1 ENE 6 9 3 5 1017.4 1015.6 0.0
31/01:00pm 21.2 19.0 6.3 38 7.7 E 7 17 4 9 1018.0 1016.2 0.0
31/12:30pm 20.7 18.7 7.3 42 7.1 E 7 17 4 9 1018.4 1016.5 0.0
31/12:00pm 21.1 19.7 7.3 41 7.3 ENE 4 13 2 7 1018.9 1017.1 0.0
31/11:30am 21.1 19.4 7.7 42 7.1 SE 6 13 3 7 1019.3 1017.5 0.0
31/11:00am 20.2 17.5 5.4 38 7.5 ESE 9 17 5 9 1019.7 1017.9 0.0
31/10:30am 20.2 19.3 10.6 54 5.4 ENE 6 13 3 7 1020.2 1018.3 0.0
31/10:00am 19.7 18.6 10.7 56 5.0 NNE 7 17 4 9 1020.4 1018.6 0.0
31/09:30am 19.3 19.6 12.3 64 4.0 NE 2 7 1 4 1020.5 1018.7 0.0
31/09:00am 18.1 17.8 12.8 71 3.0 ENE 6 11 3 6 1020.5 1018.7 0.0
31/08:30am 17.8 18.0 12.9 73 2.8 NNE 4 7 2 4 1020.4 1018.6 0.0
31/08:00am 16.8 17.7 15.0 89 1.1 NNE 4 7 2 4 1020.2 1018.3 0.0
31/07:30am 13.2 14.2 13.2 100 0.0 CALM 0 2 0 1 1019.9 1018.1 0.0
31/07:00am 10.4 10.5 10.1 98 0.2 CALM 0 0 0 0 1019.5 1017.7 0.0
31/06:30am 10.6 10.8 10.4 99 0.1 CALM 0 0 0 0 1019.3 1017.5 0.0
31/06:00am 11.0 11.2 10.7 98 0.2 CALM 0 0 0 0 1018.9 1017.1 0.0
31/05:30am 12.0 12.6 11.8 99 0.1 CALM 0 0 0 0 1018.5 1016.6 0.0
31/05:00am 12.1 12.1 11.3 95 0.4 ENE 2 6 1 3 1018.3 1016.4 0.0
31/04:30am 13.6 13.9 13.3 98 0.2 ENE 4 6 2 3 1018.3 1016.4 0.0
31/04:00am 13.7 13.9 13.2 97 0.3 ENE 4 4 2 2 1018.4 1016.5 0.0
31/03:30am 14.1 14.9 13.6 97 0.3 E 2 6 1 3 1018.5 1016.6 0.0
31/03:00am 14.1 14.7 13.1 94 0.6 ENE 2 4 1 2 1018.5 1016.6 0.0
31/02:30am 14.8 15.2 13.7 93 0.6 ENE 4 7 2 4 1018.8 1017.0 0.0
31/02:00am 15.4 15.9 14.1 92 0.8 ENE 4 11 2 6 1019.0 1017.2 0.0
31/01:30am 15.1 15.2 13.8 92 0.7 ENE 6 11 3 6 1019.2 1017.4 0.0
31/01:00am 15.4 15.6 14.1 92 0.8 ENE 6 13 3 7 1019.3 1017.5 0.0
31/12:30am 15.5 15.6 13.9 90 0.9 ENE 6 11 3 6 1019.5 1017.7 0.0
31/12:00am 15.1 15.7 13.0 87 1.2 NE 2 6 1 3 1019.7 1017.9 0.0
 
Date/Time
EST
Temp
°C
App
Temp
°C
Dew
Point
Rel
Hum
%
Delta-T
°C
Wind Press
QNH
hPa
Press
MSL
hPa
Rain
since 9 am
mm
Dir
 
Spd
km/h
Gust
km/h
Spd
kts
Gust
kts
30/11:30pm 15.4 15.3 13.2 87 1.3 NE 6 13 3 7 1019.8 1018.0 0.0
30/11:00pm 15.3 15.0 13.2 87 1.2 NE 7 13 4 7 1019.9 1018.1 0.0
30/10:30pm 14.9 14.1 12.8 87 1.2 NE 9 15 5 8 1020.1 1018.2 0.0
30/10:00pm 15.0 14.5 12.5 85 1.4 NE 7 13 4 7 1020.2 1018.3 0.0
30/09:30pm 15.2 14.2 12.3 83 1.6 NE 9 20 5 11 1020.2 1018.3 0.0
30/09:00pm 14.9 14.2 12.0 83 1.6 NE 7 15 4 8 1020.1 1018.2 0.0
30/08:30pm 15.3 14.6 11.9 80 1.9 NNE 7 15 4 8 1020.1 1018.2 0.0
30/08:00pm 15.6 14.5 11.8 78 2.1 NE 9 19 5 10 1019.8 1018.0 0.0
30/07:30pm 15.4 14.5 11.4 77 2.2 NE 7 13 4 7 1019.3 1017.5 0.0
30/07:00pm 15.6 14.6 11.0 74 2.5 NNE 7 17 4 9 1019.0 1017.2 0.0
30/06:30pm 16.1 14.4 10.0 67 3.3 NNE 9 19 5 10 1018.7 1016.9 0.0
30/06:00pm 16.7 15.4 9.9 64 3.7 NNE 7 13 4 7 1018.5 1016.6 0.0
30/05:30pm 18.0 16.7 10.1 60 4.3 NNE 7 19 4 10 1018.2 1016.3 0.0
30/05:00pm 18.9 17.2 9.7 55 5.0 NNE 9 19 5 10 1017.9 1016.1 0.0
30/04:30pm 20.0 17.8 9.3 50 5.8 NE 11 19 6 10 1017.9 1016.1 0.0
30/04:00pm 20.6 18.4 9.2 48 6.2 NNE 11 22 6 12 1017.8 1016.0 0.0
30/03:30pm 21.5 19.8 9.7 47 6.5 N 9 19 5 10 1017.8 1016.0 0.0
30/03:00pm 21.0 18.4 9.3 47 6.4 NE 13 20 7 11 1017.9 1016.1 0.0
30/02:30pm 22.1 20.0 5.9 35 8.4 ENE 6 15 3 8 1018.2 1016.3 0.0
30/02:00pm 21.8 19.9 6.5 37 8.0 SSE 6 11 3 6 1018.6 1016.7 0.0
30/01:30pm 21.9 20.4 6.6 37 8.0 N 4 11 2 6 1019.0 1017.2 0.0
30/01:00pm 21.7 19.6 6.8 38 7.8 SE 7 15 4 8 1019.2 1017.4 0.0
30/12:30pm 21.3 18.7 6.0 37 7.9 E 9 17 5 9 1019.6 1017.8 0.0
30/12:00pm 20.6 18.6 6.9 41 7.1 E 7 17 4 9 1020.2 1018.3 0.0
30/11:30am 20.9 18.2 7.5 42 7.1 ESE 11 19 6 10 1020.8 1019.0 0.0
30/11:00am 20.4 18.2 7.7 44 6.7 ESE 9 19 5 10 1021.1 1019.3 0.0
30/10:30am 19.6 17.7 7.7 46 6.3 E 7 13 4 7 1021.7 1019.9 0.0
30/10:00am 19.7 17.9 7.8 46 6.3 E 7 13 4 7 1021.7 1019.9 0.0
30/09:30am 19.1 17.6 9.3 53 5.3 E 7 20 4 11 1021.7 1019.9 0.0
30/09:00am 17.8 16.6 9.7 59 4.4 ENE 6 13 3 7 1021.8 1020.1 0.0
30/08:30am 17.0 16.6 12.3 74 2.7 ESE 6 9 3 5 1021.6 1019.8 0.0
30/08:00am 16.1 16.0 12.1 77 2.2 ESE 4 7 2 4 1021.4 1019.6 0.0
30/07:30am 14.6 14.9 12.1 85 1.4 ESE 2 6 1 3 1021.0 1019.2 0.0
30/07:00am 12.9 12.2 10.1 83 1.5 E 4 6 2 3 1020.7 1018.9 0.0
30/06:30am 13.7 13.2 10.9 83 1.5 E 4 9 2 5 1020.8 1019.0 0.0
30/06:00am 13.6 13.3 11.3 86 1.3 E 4 9 2 5 1020.5 1018.7 0.0
30/05:30am 14.0 13.4 11.7 86 1.3 ENE 6 11 3 6 1020.5 1018.7 0.0
30/05:00am 13.7 13.4 11.4 86 1.3 ENE 4 9 2 5 1020.3 1018.5 0.0
30/04:30am 12.8 12.5 11.5 92 0.7 ENE 4 6 2 3 1019.9 1018.1 0.0
30/04:00am 12.9 12.9 11.1 89 1.0 ENE 2 4 1 2 1020.1 1018.2 0.0
30/03:30am 12.8 12.5 10.2 84 1.4 NE 2 4 1 2 1020.2 1018.3 0.0
30/03:00am 13.8 13.0 9.8 77 2.1 ENE 4 9 2 5 1019.6 1017.8 0.0
30/02:30am 14.5 13.3 9.5 72 2.6 ENE 6 11 3 6 1019.7 1017.9 0.0
30/02:00am 14.6 13.2 9.6 72 2.6 ENE 7 11 4 6 1019.7 1017.9 0.0
30/01:30am 15.0 13.7 10.0 72 2.7 ENE 7 13 4 7 1020.2 1018.3 0.0
30/01:00am 14.8 13.6 10.4 75 2.4 ENE 7 13 4 7 1020.4 1018.6 0.0
30/12:30am 15.3 13.6 11.1 76 2.3 NE 11 19 6 10 1020.4 1018.6 0.0
30/12:00am 15.3 13.6 11.3 77 2.2 NE 11 20 6 11 1020.5 1018.7 0.0
 
Date/Time
EST
Temp
°C
App
Temp
°C
Dew
Point
Rel
Hum
%
Delta-T
°C
Wind Press
QNH
hPa
Press
MSL
hPa
Rain
since 9 am
mm
Dir
 
Spd
km/h
Gust
km/h
Spd
kts
Gust
kts
29/11:30pm 15.2 14.6 13.4 89 1.0 NE 9 19 5 10 1020.6 1018.8 0.0
29/11:00pm 15.4 15.5 14.4 94 0.6 NE 7 15 4 8 1020.9 1019.1 0.0
29/10:30pm 15.6 15.8 14.8 95 0.5 NE 7 13 4 7 1021.0 1019.2 0.0
29/10:00pm 16.2 16.5 15.1 93 0.7 NE 7 13 4 7 1021.1 1019.3 0.0
29/09:30pm 16.5 16.9 15.2 92 0.8 NE 7 13 4 7 1021.1 1019.3 0.0
29/09:00pm 16.4 16.8 15.3 93 0.7 NNE 7 15 4 8 1021.1 1019.3 0.0
29/08:30pm 16.5 16.9 15.4 93 0.7 NNE 7 15 4 8 1021.0 1019.2 0.0
29/08:00pm 16.3 16.7 15.3 94 0.6 NNE 7 15 4 8 1020.7 1018.9 0.0
29/07:30pm 15.8 15.9 14.5 92 0.8 N 7 15 4 8 1020.3 1018.5 0.0
29/07:00pm 16.5 16.7 14.7 89 1.1 NNE 7 15 4 8 1020.2 1018.3 0.0
29/06:30pm 16.5 16.5 14.2 86 1.3 NNE 7 15 4 8 1019.8 1018.0 0.0
29/06:00pm 17.1 16.5 13.6 80 2.0 NNE 9 15 5 8 1019.3 1017.5 0.0
29/05:30pm 18.4 18.0 13.1 71 3.1 N 7 19 4 10 1019.0 1017.2 0.0
29/05:00pm 19.7 18.8 12.7 64 4.0 NNE 9 17 5 9 1018.8 1017.0 0.0
29/04:30pm 19.3 18.2 12.1 63 4.1 NNE 9 15 5 8 1018.7 1016.9 0.0
29/04:00pm 21.1 20.1 12.3 57 5.1 NNE 9 15 5 8 1018.6 1016.7 0.0
29/03:30pm 20.9 20.3 12.3 58 5.0 NE 7 15 4 8 1018.7 1016.9 0.0
29/03:00pm 22.3 21.4 12.5 53 5.7 NNE 9 17 5 9 1018.7 1016.9 0.0
29/02:30pm 22.2 20.8 9.4 44 7.1 ESE 7 15 4 8 1018.8 1017.0 0.0
29/02:00pm 21.4 20.1 9.9 48 6.4 ENE 7 15 4 8 1019.0 1017.2 0.0
29/01:30pm 22.2 20.7 10.4 47 6.6 E 9 17 5 9 1019.4 1017.6 0.0
29/01:00pm 21.4 19.9 10.6 50 6.1 E 9 15 5 8 1019.9 1018.1 0.0
29/12:30pm 21.1 20.2 10.6 51 5.9 E 6 15 3 8 1020.6 1018.8 0.0
29/12:00pm 21.8 20.5 11.2 51 6.0 ESE 9 19 5 10 1021.0 1019.2 0.0
29/11:30am 20.5 18.7 10.9 54 5.4 E 11 20 6 11 1021.6 1019.8 0.0
29/11:00am 19.9 18.4 10.6 55 5.2 ESE 9 28 5 15 1021.8 1020.1 0.0
29/10:30am 19.9 19.3 11.7 59 4.7 E 6 11 3 6 1022.1 1020.3 0.0
29/10:00am 18.8 17.7 12.1 65 3.8 E 9 19 5 10 1022.3 1020.5 0.0
29/09:30am 18.4 17.2 11.7 65 3.8 ESE 9 19 5 10 1022.2 1020.4 0.0
29/09:00am 18.7 18.1 11.8 64 3.9 E 6 11 3 6 1022.0 1020.2 0.0
29/08:30am 17.4 17.2 11.7 69 3.2 NE 4 7 2 4 1021.7 1019.9 0.0
29/08:00am 15.2 16.2 14.4 95 0.5 NNE 2 6 1 3 1021.4 1019.6 0.0
29/07:30am 10.2 10.3 10.1 99 0.1 CALM 0 0 0 0 1021.2 1019.4 0.0
29/07:00am 7.6 7.0 7.5 99 0.0 CALM 0 0 0 0 1020.9 1019.1 0.0
29/06:30am 7.3 6.7 7.2 99 0.0 CALM 0 0 0 0 1020.6 1018.8 0.0
29/06:00am 7.7 7.1 7.6 99 0.0 CALM 0 0 0 0 1020.4 1018.6 0.0
29/05:30am 7.7 7.1 7.4 98 0.1 CALM 0 0 0 0 1020.2 1018.3 0.0
29/05:00am 7.7 7.1 7.4 98 0.1 CALM 0 0 0 0 1019.9 1018.1 0.0
29/04:30am 8.4 7.9 8.0 97 0.2 CALM 0 0 0 0 1020.1 1018.2 0.0
29/04:00am 8.7 8.3 8.3 97 0.2 CALM 0 0 0 0 1020.1 1018.2 0.0
29/03:30am 8.9 8.4 8.0 94 0.4 CALM 0 0 0 0 1020.1 1018.2 0.0
29/03:00am 10.7 10.5 10.5 99 0.1 ENE 2 4 1 2 1020.1 1018.2 0.0
29/02:30am 9.5 8.5 9.0 97 0.3 ENE 4 6 2 3 1020.1 1018.2 0.0
29/02:00am 10.8 10.3 10.8 100 0.0 NE 4 7 2 4 1020.3 1018.5 0.0
29/01:30am 10.0 9.7 10.0 100 0.0 NE 2 6 1 3 1020.3 1018.5 0.0
29/01:00am 8.6 8.2 8.2 97 0.2 CALM 0 0 0 0 1020.3 1018.5 0.0
29/12:30am 9.7 8.9 9.7 100 0.0 NNE 4 7 2 4 1020.5 1018.7 0.0
29/12:00am 8.9 8.6 8.6 98 0.1 CALM 0 0 0 0 1020.7 1018.9 0.0
 
Date/Time
EST
Temp
°C
App
Temp
°C
Dew
Point
Rel
Hum
%
Delta-T
°C
Wind Press
QNH
hPa
Press
MSL
hPa
Rain
since 9 am
mm
Dir
 
Spd
km/h
Gust
km/h
Spd
kts
Gust
kts
28/11:30pm 9.0 8.7 8.6 97 0.2 CALM 0 0 0 0 1020.8 1019.0 0.0
28/11:00pm 9.1 8.8 8.5 96 0.3 CALM 0 0 0 0 1020.7 1018.9 0.0
28/10:30pm 9.8 9.6 9.0 95 0.4 CALM 0 0 0 0 1020.7 1018.9 0.0
28/10:00pm 10.0 9.8 9.2 95 0.4 CALM 0 0 0 0 1020.7 1018.9 0.0
28/09:30pm 10.8 10.8 9.9 94 0.5 CALM 0 0 0 0 1020.8 1019.0 0.0
28/09:00pm 11.0 10.9 9.3 89 0.9 CALM 0 0 0 0 1020.7 1018.9 0.0
28/08:30pm 12.2 12.4 10.6 90 0.9 CALM 0 0 0 0 1020.7 1018.9 0.0
28/08:00pm 13.4 13.1 11.3 87 1.1 NNE 4 7 2 4 1020.5 1018.7 0.0
28/07:30pm 13.8 13.4 11.0 83 1.5 NNE 4 7 2 4 1019.8 1018.0 0.0
28/07:00pm 14.6 13.7 10.8 78 2.1 NNE 6 9 3 5 1019.6 1017.8 0.0
28/06:30pm 15.0 14.3 10.0 72 2.7 NNE 4 7 2 4 1019.1 1017.3 0.0

Other Formats:

Comma delimited format used in spreadsheet applications
http://www.bom.gov.au/fwo/IDQ60801/IDQ60801.95293.axf

JavaScript Object Notation format (JSON) in row-major order
http://www.bom.gov.au/fwo/IDQ60801/IDQ60801.95293.json